Impacts TAF Board
For situational awareness. Not to be used for flight planning purposes.
IDs:

KMDW - Chicago/Midway Intl, IL, US

Issued at 0300 UTC 14 Dec 2018
Updated at 0511 UTC 14 Dec 2018
Potential Impact None Slight Moderate High
Time0453Z 14/06Z 14/07Z 14/08Z 14/09Z 14/10Z 14/11Z 14/12Z 14/13Z 14/14Z 14/15Z 14/16Z 14/17Z 14/18Z>>
Type OBS PRVL PRVL PRVL PRVL PRVL PRVL PRVL PRVL PRVL PRVL PRVL PRVL PRVL
VIS 2 1.5 1.5 1.5 1.5 1.5 2 2 2 4 4 4 4 4
CIG 5 3 3 3 3 3 4 4 4 7 7 7 7 7
Cover OVC OVC OVC OVC OVC OVC OVC OVC OVC OVC OVC OVC OVC OVC
FltCat IFR LIFR LIFR LIFR LIFR LIFR LIFR LIFR LIFR IFR IFR IFR IFR IFR
WX -RA BR -RA BR -RA BR -RA BR -RA BR -RA BR BR VCSH BR VCSH BR VCSH BR BR BR BR BR
WDir 80 50 50 50 50 50 10 10 10 10 10 10 10 10
WSpd 4 5 5 5 5 5 4 4 4 5 5 5 5 5
WGst -- -- -- -- -- -- -- -- -- -- -- -- -- --
Raw TAF
KMDW 140300Z 1403/1506 08006KT 1 1/2SM -RA BR OVC004
  FM140600 05005KT 1 1/2SM -RA BR OVC003
  FM141100 01004KT 2SM BR VCSH OVC004
  FM141400 01005KT 4SM BR OVC007
  FM141900 03009KT P6SM OVC015
  FM150000 03009KT P6SM SCT020


Raw METAR
KMDW 140453Z 08004KT 2SM -RA BR OVC005 05/03 A3009 RMK AO2 SLP198 P0004 T00500033
KMDW 140438Z 08004KT 1 3/4SM -RA BR OVC005 05/03 A3009 RMK AO2 P0003 T00500033
KMDW 140353Z 09004KT 1 3/4SM -RA BR OVC004 04/03 A3009 RMK AO2 SLP196 P0006 T00440033
KMDW 140315Z 08005KT 1 3/4SM RA BR OVC004 05/03 A3009 RMK AO2 P0003 T00500033
KMDW 140253Z 08006KT 2SM -RA BR OVC004 04/03 A3008 RMK AO2 SLP197 P0003 60009 T00440033 55001
KMDW 140232Z 08008KT 2SM -RA BR OVC004 04/03 A3008 RMK AO2 P0002 T00440033

METAR Board
Radar Display
Forecast Discussion
For situational awareness. Not to be used for flight planning purposes.